sensor_id;sensor_type;location;lat;lon;timestamp;pressure;altitude;pressure_sealevel;temperature;humidity
39887;BME280;25559;44.738;20.980;2022-10-31T00:03:44;101397.94;;;13.41;100.00
39887;BME280;25559;44.738;20.980;2022-10-31T00:06:10;101408.41;;;13.36;100.00
39887;BME280;25559;44.738;20.980;2022-10-31T00:08:36;101413.63;;;13.35;100.00
39887;BME280;25559;44.738;20.980;2022-10-31T00:11:01;101405.81;;;13.35;100.00
39887;BME280;25559;44.738;20.980;2022-10-31T00:13:27;101409.25;;;13.37;100.00
39887;BME280;25559;44.738;20.980;2022-10-31T00:15:53;101416.22;;;13.33;100.00
39887;BME280;25559;44.738;20.980;2022-10-31T00:18:18;101415.41;;;13.28;100.00
39887;BME280;25559;44.738;20.980;2022-10-31T00:20:44;101415.38;;;13.29;100.00
39887;BME280;25559;44.738;20.980;2022-10-31T00:23:10;101425.75;;;13.34;100.00
39887;BME280;25559;44.738;20.980;2022-10-31T00:25:38;101423.22;;;13.26;100.00
39887;BME280;25559;44.738;20.980;2022-10-31T00:28:05;101423.16;;;13.32;100.00
39887;BME280;25559;44.738;20.980;2022-10-31T00:30:31;101425.69;;;13.39;100.00
39887;BME280;25559;44.738;20.980;2022-10-31T00:32:57;101420.50;;;13.39;100.00
39887;BME280;25559;44.738;20.980;2022-10-31T00:35:23;101417.84;;;13.42;100.00
39887;BME280;25559;44.738;20.980;2022-10-31T00:37:48;101417.06;;;13.37;100.00
39887;BME280;25559;44.738;20.980;2022-10-31T00:40:15;101417.00;;;13.41;100.00
39887;BME280;25559;44.738;20.980;2022-10-31T00:42:41;101423.97;;;13.41;100.00
39887;BME280;25559;44.738;20.980;2022-10-31T00:45:08;101410.97;;;13.39;100.00
39887;BME280;25559;44.738;20.980;2022-10-31T00:47:34;101425.59;;;13.46;100.00
39887;BME280;25559;44.738;20.980;2022-10-31T00:49:59;101425.56;;;13.48;100.00
39887;BME280;25559;44.738;20.980;2022-10-31T00:52:25;101421.28;;;13.47;100.00
39887;BME280;25559;44.738;20.980;2022-10-31T00:54:50;101420.34;;;13.49;100.00
39887;BME280;25559;44.738;20.980;2022-10-31T00:57:16;101417.78;;;13.46;100.00
39887;BME280;25559;44.738;20.980;2022-10-31T00:59:41;101421.31;;;13.44;100.00
39887;BME280;25559;44.738;20.980;2022-10-31T01:02:07;101409.22;;;13.38;100.00
39887;BME280;25559;44.738;20.980;2022-10-31T01:04:32;101410.97;;;13.39;100.00
39887;BME280;25559;44.738;20.980;2022-10-31T01:06:58;101417.91;;;13.37;100.00
39887;BME280;25559;44.738;20.980;2022-10-31T01:09:24;101412.69;;;13.37;100.00
39887;BME280;25559;44.738;20.980;2022-10-31T01:11:49;101419.66;;;13.37;100.00
39887;BME280;25559;44.738;20.980;2022-10-31T01:14:15;101424.88;;;13.37;100.00
39887;BME280;25559;44.738;20.980;2022-10-31T01:16:40;101411.88;;;13.32;100.00
39887;BME280;25559;44.738;20.980;2022-10-31T01:19:06;101408.38;;;13.38;100.00
39887;BME280;25559;44.738;20.980;2022-10-31T01:21:31;101404.03;;;13.38;100.00
39887;BME280;25559;44.738;20.980;2022-10-31T01:23:58;101414.47;;;13.35;100.00
39887;BME280;25559;44.738;20.980;2022-10-31T01:26:26;101405.78;;;13.36;100.00
39887;BME280;25559;44.738;20.980;2022-10-31T01:28:58;101400.59;;;13.36;100.00
39887;BME280;25559;44.738;20.980;2022-10-31T01:31:26;101410.13;;;13.36;100.00
39887;BME280;25559;44.738;20.980;2022-10-31T01:33:54;101408.41;;;13.36;100.00
39887;BME280;25559;44.738;20.980;2022-10-31T01:36:25;101407.53;;;13.36;100.00
39887;BME280;25559;44.738;20.980;2022-10-31T01:38:54;101410.97;;;13.38;100.00
39887;BME280;25559;44.738;20.980;2022-10-31T01:41:23;101403.16;;;13.38;100.00
39887;BME280;25559;44.738;20.980;2022-10-31T01:43:53;101404.00;;;13.40;100.00
39887;BME280;25559;44.738;20.980;2022-10-31T01:46:25;101409.19;;;13.41;100.00
39887;BME280;25559;44.738;20.980;2022-10-31T01:48:54;101404.84;;;13.40;100.00
39887;BME280;25559;44.738;20.980;2022-10-31T01:51:24;101397.16;;;13.29;100.00
39887;BME280;25559;44.738;20.980;2022-10-31T01:53:54;101399.81;;;13.26;100.00
39887;BME280;25559;44.738;20.980;2022-10-31T01:56:21;101406.69;;;13.30;100.00
39887;BME280;25559;44.738;20.980;2022-10-31T01:58:47;101393.72;;;13.27;100.00
39887;BME280;25559;44.738;20.980;2022-10-31T02:01:16;101401.47;;;13.33;100.00
39887;BME280;25559;44.738;20.980;2022-10-31T02:03:44;101406.81;;;13.21;100.00
39887;BME280;25559;44.738;20.980;2022-10-31T02:06:38;101404.34;;;13.12;100.00
39887;BME280;25559;44.738;20.980;2022-10-31T02:09:04;101405.13;;;13.17;100.00
39887;BME280;25559;44.738;20.980;2022-10-31T02:11:30;101406.06;;;13.10;100.00
39887;BME280;25559;44.738;20.980;2022-10-31T02:13:58;101402.72;;;13.02;100.00
39887;BME280;25559;44.738;20.980;2022-10-31T02:16:24;101399.22;;;13.04;100.00
39887;BME280;25559;44.738;20.980;2022-10-31T02:18:52;101397.41;;;13.09;100.00
39887;BME280;25559;44.738;20.980;2022-10-31T02:21:47;101398.22;;;13.13;100.00
39887;BME280;25559;44.738;20.980;2022-10-31T02:30:06;101386.94;;;13.15;100.00
39887;BME280;25559;44.738;20.980;2022-10-31T02:32:43;101397.34;;;13.15;100.00
39887;BME280;25559;44.738;20.980;2022-10-31T02:41:15;101391.31;;;13.13;100.00
39887;BME280;25559;44.738;20.980;2022-10-31T02:43:54;101390.41;;;13.14;100.00
39887;BME280;25559;44.738;20.980;2022-10-31T02:46:43;101398.22;;;13.13;100.00
39887;BME280;25559;44.738;20.980;2022-10-31T02:49:43;101392.22;;;13.08;100.00
39887;BME280;25559;44.738;20.980;2022-10-31T02:52:18;101393.22;;;12.97;100.00
39887;BME280;25559;44.738;20.980;2022-10-31T02:54:46;101397.56;;;12.97;100.00
39887;BME280;25559;44.738;20.980;2022-10-31T02:57:13;101399.41;;;12.86;100.00
39887;BME280;25559;44.738;20.980;2022-10-31T02:59:49;101402.97;;;12.80;100.00
39887;BME280;25559;44.738;20.980;2022-10-31T03:10:53;101418.44;;;12.91;100.00
39887;BME280;25559;44.738;20.980;2022-10-31T03:13:46;101416.66;;;12.94;100.00
39887;BME280;25559;44.738;20.980;2022-10-31T03:18:52;101419.22;;;12.97;100.00
39887;BME280;25559;44.738;20.980;2022-10-31T03:21:36;101414.00;;;13.01;100.00
39887;BME280;25559;44.738;20.980;2022-10-31T03:24:05;101415.72;;;13.03;100.00
39887;BME280;25559;44.738;20.980;2022-10-31T03:26:36;101415.69;;;13.05;100.00
39887;BME280;25559;44.738;20.980;2022-10-31T03:29:08;101412.22;;;13.06;100.00
39887;BME280;25559;44.738;20.980;2022-10-31T03:31:51;101413.22;;;12.92;100.00
39887;BME280;25559;44.738;20.980;2022-10-31T03:34:20;101417.53;;;12.93;100.00
39887;BME280;25559;44.738;20.980;2022-10-31T03:36:50;101416.69;;;12.93;100.00
39887;BME280;25559;44.738;20.980;2022-10-31T03:39:19;101415.78;;;12.97;100.00
39887;BME280;25559;44.738;20.980;2022-10-31T03:41:52;101420.94;;;13.00;100.00
39887;BME280;25559;44.738;20.980;2022-10-31T03:44:20;101415.72;;;13.02;100.00
39887;BME280;25559;44.738;20.980;2022-10-31T03:46:56;101417.44;;;13.04;100.00
39887;BME280;25559;44.738;20.980;2022-10-31T03:49:22;101412.22;;;13.06;100.00
39887;BME280;25559;44.738;20.980;2022-10-31T03:52:03;101411.31;;;13.07;100.00
39887;BME280;25559;44.738;20.980;2022-10-31T03:54:37;101420.84;;;13.08;100.00
39887;BME280;25559;44.738;20.980;2022-10-31T03:57:22;101410.47;;;13.05;100.00
39887;BME280;25559;44.738;20.980;2022-10-31T04:00:03;101415.75;;;12.98;100.00
39887;BME280;25559;44.738;20.980;2022-10-31T04:02:35;101420.09;;;12.96;100.00
39887;BME280;25559;44.738;20.980;2022-10-31T04:05:04;101420.19;;;12.89;100.00
39887;BME280;25559;44.738;20.980;2022-10-31T04:07:36;101422.88;;;12.81;100.00
39887;BME280;25559;44.738;20.980;2022-10-31T04:10:08;101423.78;;;12.78;100.00
39887;BME280;25559;44.738;20.980;2022-10-31T04:12:36;101416.06;;;12.69;100.00
39887;BME280;25559;44.738;20.980;2022-10-31T04:15:14;101428.25;;;12.64;100.00
39887;BME280;25559;44.738;20.980;2022-10-31T04:17:41;101425.78;;;12.52;100.00
39887;BME280;25559;44.738;20.980;2022-10-31T04:20:11;101423.19;;;12.50;100.00
39887;BME280;25559;44.738;20.980;2022-10-31T04:22:40;101427.53;;;12.50;100.00
39887;BME280;25559;44.738;20.980;2022-10-31T04:25:06;101423.16;;;12.53;100.00
39887;BME280;25559;44.738;20.980;2022-10-31T04:27:32;101431.78;;;12.57;100.00
39887;BME280;25559;44.738;20.980;2022-10-31T04:29:57;101430.00;;;12.64;100.00
39887;BME280;25559;44.738;20.980;2022-10-31T04:32:25;101431.69;;;12.66;100.00
39887;BME280;25559;44.738;20.980;2022-10-31T04:34:52;101434.25;;;12.69;100.00
39887;BME280;25559;44.738;20.980;2022-10-31T04:37:17;101423.88;;;12.71;100.00
39887;BME280;25559;44.738;20.980;2022-10-31T04:39:43;101430.72;;;12.76;100.00
39887;BME280;25559;44.738;20.980;2022-10-31T04:42:32;101438.50;;;12.78;100.00
39887;BME280;25559;44.738;20.980;2022-10-31T04:45:01;101437.63;;;12.82;100.00
39887;BME280;25559;44.738;20.980;2022-10-31T04:47:27;101437.59;;;12.84;100.00
39887;BME280;25559;44.738;20.980;2022-10-31T04:49:52;101438.44;;;12.86;100.00
39887;BME280;25559;44.738;20.980;2022-10-31T04:52:18;101442.78;;;12.85;100.00
39887;BME280;25559;44.738;20.980;2022-10-31T04:54:44;101443.63;;;12.87;100.00
39887;BME280;25559;44.738;20.980;2022-10-31T04:57:28;101432.44;;;12.79;100.00
39887;BME280;25559;44.738;20.980;2022-10-31T04:59:54;101433.28;;;12.81;100.00
39887;BME280;25559;44.738;20.980;2022-10-31T05:02:22;101440.19;;;12.85;100.00
39887;BME280;25559;44.738;20.980;2022-10-31T05:04:53;101439.34;;;12.83;100.00
39887;BME280;25559;44.738;20.980;2022-10-31T05:07:19;101440.16;;;12.87;100.00
39887;BME280;25559;44.738;20.980;2022-10-31T05:09:45;101437.66;;;12.77;100.00
39887;BME280;25559;44.738;20.980;2022-10-31T05:12:12;101435.91;;;12.78;100.00
39887;BME280;25559;44.738;20.980;2022-10-31T05:15:00;101442.84;;;12.80;100.00
39887;BME280;25559;44.738;20.980;2022-10-31T05:17:45;101441.09;;;12.79;100.00
39887;BME280;25559;44.738;20.980;2022-10-31T05:20:39;101450.66;;;12.79;100.00
39887;BME280;25559;44.738;20.980;2022-10-31T05:23:25;101451.56;;;12.75;100.00
39887;BME280;25559;44.738;20.980;2022-10-31T05:25:50;101445.53;;;12.71;100.00
39887;BME280;25559;44.738;20.980;2022-10-31T05:28:16;101453.31;;;12.71;100.00
39887;BME280;25559;44.738;20.980;2022-10-31T05:30:42;101457.69;;;12.68;100.00
39887;BME280;25559;44.738;20.980;2022-10-31T05:33:11;101460.28;;;12.68;100.00
39887;BME280;25559;44.738;20.980;2022-10-31T05:35:55;101454.16;;;12.73;100.00
39887;BME280;25559;44.738;20.980;2022-10-31T05:38:30;101458.47;;;12.76;100.00
39887;BME280;25559;44.738;20.980;2022-10-31T05:41:01;101460.22;;;12.75;100.00
39887;BME280;25559;44.738;20.980;2022-10-31T05:43:29;101452.47;;;12.72;100.00
39887;BME280;25559;44.738;20.980;2022-10-31T05:45:55;101458.47;;;12.76;100.00
39887;BME280;25559;44.738;20.980;2022-10-31T05:48:40;101471.50;;;12.74;100.00
39887;BME280;25559;44.738;20.980;2022-10-31T05:51:40;101475.00;;;12.69;100.00
39887;BME280;25559;44.738;20.980;2022-10-31T05:54:07;101474.19;;;12.65;100.00
39887;BME280;25559;44.738;20.980;2022-10-31T05:56:33;101480.25;;;12.64;100.00
39887;BME280;25559;44.738;20.980;2022-10-31T05:58:59;101482.84;;;12.67;100.00
39887;BME280;25559;44.738;20.980;2022-10-31T06:01:26;101482.84;;;12.66;100.00
39887;BME280;25559;44.738;20.980;2022-10-31T06:03:51;101481.13;;;12.63;100.00
39887;BME280;25559;44.738;20.980;2022-10-31T06:06:19;101487.25;;;12.60;100.00
39887;BME280;25559;44.738;20.980;2022-10-31T06:08:44;101490.66;;;12.64;100.00
39887;BME280;25559;44.738;20.980;2022-10-31T06:11:16;101485.44;;;12.67;100.00
39887;BME280;25559;44.738;20.980;2022-10-31T06:14:00;101486.28;;;12.68;100.00
39887;BME280;25559;44.738;20.980;2022-10-31T06:16:39;101497.56;;;12.68;100.00
39887;BME280;25559;44.738;20.980;2022-10-31T06:19:40;101488.09;;;12.59;100.00
39887;BME280;25559;44.738;20.980;2022-10-31T06:22:08;101493.31;;;12.58;100.00
39887;BME280;25559;44.738;20.980;2022-10-31T06:24:37;101482.09;;;12.53;100.00
39887;BME280;25559;44.738;20.980;2022-10-31T06:27:10;101487.47;;;12.28;100.00
39887;BME280;25559;44.738;20.980;2022-10-31T06:29:36;101491.91;;;12.18;100.00
39887;BME280;25559;44.738;20.980;2022-10-31T06:32:04;101488.41;;;12.24;100.00
39887;BME280;25559;44.738;20.980;2022-10-31T06:34:34;101494.34;;;12.37;100.00
39887;BME280;25559;44.738;20.980;2022-10-31T06:37:00;101484.78;;;12.45;100.00
39887;BME280;25559;44.738;20.980;2022-10-31T06:39:27;101492.44;;;12.59;100.00
39887;BME280;25559;44.738;20.980;2022-10-31T06:41:53;101488.03;;;12.67;100.00
39887;BME280;25559;44.738;20.980;2022-10-31T06:44:20;101492.31;;;12.74;100.00
39887;BME280;25559;44.738;20.980;2022-10-31T06:47:08;101493.09;;;12.81;100.00
39887;BME280;25559;44.738;20.980;2022-10-31T06:49:34;101506.94;;;12.88;100.00
39887;BME280;25559;44.738;20.980;2022-10-31T06:52:02;101503.38;;;12.93;100.00
39887;BME280;25559;44.738;20.980;2022-10-31T06:54:28;101501.59;;;13.00;100.00
39887;BME280;25559;44.738;20.980;2022-10-31T06:56:53;101500.69;;;13.06;100.00
39887;BME280;25559;44.738;20.980;2022-10-31T06:59:20;101498.81;;;13.15;100.00
39887;BME280;25559;44.738;20.980;2022-10-31T07:02:04;101497.03;;;13.21;100.00
39887;BME280;25559;44.738;20.980;2022-10-31T07:04:32;101501.31;;;13.26;100.00
39887;BME280;25559;44.738;20.980;2022-10-31T07:06:57;101501.22;;;13.32;100.00
39887;BME280;25559;44.738;20.980;2022-10-31T07:09:23;101499.47;;;13.39;100.00
39887;BME280;25559;44.738;20.980;2022-10-31T07:11:52;101491.59;;;13.45;100.00
39887;BME280;25559;44.738;20.980;2022-10-31T07:14:18;101495.03;;;13.47;100.00
39887;BME280;25559;44.738;20.980;2022-10-31T07:16:44;101495.84;;;13.49;100.00
39887;BME280;25559;44.738;20.980;2022-10-31T07:19:13;101500.16;;;13.52;100.00
39887;BME280;25559;44.738;20.980;2022-10-31T07:21:39;101500.94;;;13.59;100.00
39887;BME280;25559;44.738;20.980;2022-10-31T07:24:07;101501.75;;;13.64;100.00
39887;BME280;25559;44.738;20.980;2022-10-31T07:26:41;101497.47;;;13.60;100.00
39887;BME280;25559;44.738;20.980;2022-10-31T07:29:08;101501.75;;;13.65;100.00
39887;BME280;25559;44.738;20.980;2022-10-31T07:31:34;101510.34;;;13.71;100.00
39887;BME280;25559;44.738;20.980;2022-10-31T07:34:09;101511.16;;;13.77;100.00
39887;BME280;25559;44.738;20.980;2022-10-31T07:36:34;101511.13;;;13.79;100.00
39887;BME280;25559;44.738;20.980;2022-10-31T07:39:03;101506.75;;;13.81;100.00
39887;BME280;25559;44.738;20.980;2022-10-31T07:41:30;101511.94;;;13.82;100.00
39887;BME280;25559;44.738;20.980;2022-10-31T07:43:55;101509.28;;;13.85;100.00
39887;BME280;25559;44.738;20.980;2022-10-31T07:46:41;101517.03;;;13.90;100.00
39887;BME280;25559;44.738;20.980;2022-10-31T07:49:25;101518.75;;;13.93;100.00
39887;BME280;25559;44.738;20.980;2022-10-31T07:52:09;101517.81;;;13.97;100.00
39887;BME280;25559;44.738;20.980;2022-10-31T07:54:53;101515.19;;;13.98;100.00
39887;BME280;25559;44.738;20.980;2022-10-31T07:57:22;101516.91;;;13.99;100.00
39887;BME280;25559;44.738;20.980;2022-10-31T07:59:48;101514.28;;;13.99;100.00
39887;BME280;25559;44.738;20.980;2022-10-31T08:02:16;101515.13;;;14.03;100.00
39887;BME280;25559;44.738;20.980;2022-10-31T08:04:41;101518.59;;;14.03;100.00
39887;BME280;25559;44.738;20.980;2022-10-31T08:07:19;101516.72;;;14.12;100.00
39887;BME280;25559;44.738;20.980;2022-10-31T08:09:55;101519.22;;;14.18;100.00
39887;BME280;25559;44.738;20.980;2022-10-31T08:12:24;101515.72;;;14.20;100.00
39887;BME280;25559;44.738;20.980;2022-10-31T08:14:49;101515.72;;;14.20;100.00
39887;BME280;25559;44.738;20.980;2022-10-31T08:17:17;101521.00;;;14.17;100.00
39887;BME280;25559;44.738;20.980;2022-10-31T08:19:52;101518.41;;;14.16;100.00
39887;BME280;25559;44.738;20.980;2022-10-31T08:22:21;101516.66;;;14.16;100.00
39887;BME280;25559;44.738;20.980;2022-10-31T08:24:48;101517.50;;;14.20;100.00
39887;BME280;25559;44.738;20.980;2022-10-31T08:27:13;101513.09;;;14.22;100.00
39887;BME280;25559;44.738;20.980;2022-10-31T08:29:39;101509.81;;;14.11;100.00
39887;BME280;25559;44.738;20.980;2022-10-31T08:32:05;101513.25;;;14.11;100.00
39887;BME280;25559;44.738;20.980;2022-10-31T08:34:49;101508.88;;;14.13;100.00
39887;BME280;25559;44.738;20.980;2022-10-31T08:37:41;101510.63;;;14.14;100.00
39887;BME280;25559;44.738;20.980;2022-10-31T08:40:07;101505.28;;;14.22;100.00
39887;BME280;25559;44.738;20.980;2022-10-31T08:42:34;101512.97;;;14.30;100.00
39887;BME280;25559;44.738;20.980;2022-10-31T08:45:00;101506.84;;;14.34;100.00
39887;BME280;25559;44.738;20.980;2022-10-31T08:47:26;101506.66;;;14.45;100.00
39887;BME280;25559;44.738;20.980;2022-10-31T08:49:53;101512.56;;;14.56;100.00
39887;BME280;25559;44.738;20.980;2022-10-31T08:52:22;101502.06;;;14.64;100.00
39887;BME280;25559;44.738;20.980;2022-10-31T08:54:48;101506.34;;;14.65;100.00
39887;BME280;25559;44.738;20.980;2022-10-31T08:57:47;101510.06;;;14.50;100.00
39887;BME280;25559;44.738;20.980;2022-10-31T09:00:12;101507.28;;;14.62;100.00
39887;BME280;25559;44.738;20.980;2022-10-31T09:03:00;101509.94;;;14.56;100.00
39887;BME280;25559;44.738;20.980;2022-10-31T09:05:30;101500.56;;;14.46;100.00
39887;BME280;25559;44.738;20.980;2022-10-31T09:08:00;101506.66;;;14.45;100.00
39887;BME280;25559;44.738;20.980;2022-10-31T09:10:28;101509.34;;;14.40;100.00
39887;BME280;25559;44.738;20.980;2022-10-31T09:13:04;101504.91;;;13.88;100.00
39887;BME280;25559;44.738;20.980;2022-10-31T09:15:50;101506.88;;;13.70;100.00
39887;BME280;25559;44.738;20.980;2022-10-31T09:18:22;101511.38;;;13.57;100.00
39887;BME280;25559;44.738;20.980;2022-10-31T09:20:59;101515.50;;;13.75;100.00
39887;BME280;25559;44.738;20.980;2022-10-31T09:23:26;101524.00;;;13.90;100.00
39887;BME280;25559;44.738;20.980;2022-10-31T09:25:53;101519.09;;;13.63;100.00
39887;BME280;25559;44.738;20.980;2022-10-31T09:28:34;101517.53;;;13.53;100.00
39887;BME280;25559;44.738;20.980;2022-10-31T09:31:07;101511.53;;;13.45;100.00
39887;BME280;25559;44.738;20.980;2022-10-31T09:33:53;101521.13;;;13.43;100.00
39887;BME280;25559;44.738;20.980;2022-10-31T09:36:36;101516.53;;;13.62;100.00
39887;BME280;25559;44.738;20.980;2022-10-31T09:39:04;101517.19;;;13.78;100.00
39887;BME280;25559;44.738;20.980;2022-10-31T09:47:14;101515.13;;;14.03;100.00
39887;BME280;25559;44.738;20.980;2022-10-31T09:52:38;101525.28;;;14.21;100.00
39887;BME280;25559;44.738;20.980;2022-10-31T09:55:27;101521.75;;;14.26;100.00
39887;BME280;25559;44.738;20.980;2022-10-31T09:57:58;101518.63;;;14.00;100.00
39887;BME280;25559;44.738;20.980;2022-10-31T10:00:24;101520.22;;;14.12;100.00
39887;BME280;25559;44.738;20.980;2022-10-31T10:02:57;101519.72;;;13.84;100.00
39887;BME280;25559;44.738;20.980;2022-10-31T10:05:36;101516.19;;;13.90;100.00
39887;BME280;25559;44.738;20.980;2022-10-31T10:08:18;101514.94;;;14.15;100.00
39887;BME280;25559;44.738;20.980;2022-10-31T10:22:50;101524.91;;;14.45;100.00
39887;BME280;25559;44.738;20.980;2022-10-31T10:25:23;101520.94;;;14.20;100.00
39887;BME280;25559;44.738;20.980;2022-10-31T10:27:51;101519.41;;;14.07;100.00
39887;BME280;25559;44.738;20.980;2022-10-31T10:33:19;101510.25;;;13.77;100.00
39887;BME280;25559;44.738;20.980;2022-10-31T10:36:00;101516.66;;;13.53;100.00
39887;BME280;25559;44.738;20.980;2022-10-31T10:38:49;101512.69;;;13.16;100.00
39887;BME280;25559;44.738;20.980;2022-10-31T10:41:20;101517.50;;;13.56;100.00
39887;BME280;25559;44.738;20.980;2022-10-31T10:43:49;101508.53;;;13.77;100.00
39887;BME280;25559;44.738;20.980;2022-10-31T10:49:12;101511.38;;;14.19;100.00
39887;BME280;25559;44.738;20.980;2022-10-31T10:51:59;101514.59;;;14.38;100.00
39887;BME280;25559;44.738;20.980;2022-10-31T10:59:40;101496.56;;;14.79;100.00
39887;BME280;25559;44.738;20.980;2022-10-31T11:02:26;101497.69;;;14.64;100.00
39887;BME280;25559;44.738;20.980;2022-10-31T11:04:55;101494.28;;;14.59;100.00
39887;BME280;25559;44.738;20.980;2022-10-31T11:07:21;101487.16;;;14.69;100.00
39887;BME280;25559;44.738;20.980;2022-10-31T11:09:47;101494.53;;;14.42;100.00
39887;BME280;25559;44.738;20.980;2022-10-31T11:12:24;101494.31;;;14.54;100.00
39887;BME280;25559;44.738;20.980;2022-10-31T11:14:56;101487.25;;;14.64;100.00
39887;BME280;25559;44.738;20.980;2022-10-31T11:17:37;101486.91;;;14.83;100.00
39887;BME280;25559;44.738;20.980;2022-10-31T11:22:41;101471.81;;;15.00;100.00
39887;BME280;25559;44.738;20.980;2022-10-31T11:25:20;101464.75;;;15.05;100.00
39887;BME280;25559;44.738;20.980;2022-10-31T11:27:47;101457.50;;;15.21;100.00
39887;BME280;25559;44.738;20.980;2022-10-31T11:30:23;101455.88;;;15.14;100.00
39887;BME280;25559;44.738;20.980;2022-10-31T11:32:50;101447.09;;;15.17;100.00
39887;BME280;25559;44.738;20.980;2022-10-31T11:35:21;101450.28;;;15.33;100.00
39887;BME280;25559;44.738;20.980;2022-10-31T11:37:49;101446.63;;;15.41;100.00
39887;BME280;25559;44.738;20.980;2022-10-31T11:40:24;101439.28;;;15.17;100.00
39887;BME280;25559;44.738;20.980;2022-10-31T11:42:51;101431.97;;;15.34;100.00
39887;BME280;25559;44.738;20.980;2022-10-31T11:47:51;101426.06;;;15.65;100.00
39887;BME280;25559;44.738;20.980;2022-10-31T11:50:24;101422.31;;;15.78;100.00
39887;BME280;25559;44.738;20.980;2022-10-31T11:52:51;101421.44;;;15.79;100.00
39887;BME280;25559;44.738;20.980;2022-10-31T11:55:36;101422.72;;;15.99;100.00
39887;BME280;25559;44.738;20.980;2022-10-31T11:58:02;101416.31;;;16.12;100.00
39887;BME280;25559;44.738;20.980;2022-10-31T12:00:36;101415.19;;;16.21;100.00
39887;BME280;25559;44.738;20.980;2022-10-31T12:05:47;101412.22;;;16.35;100.00
39887;BME280;25559;44.738;20.980;2022-10-31T12:08:16;101415.06;;;16.26;100.00
39887;BME280;25559;44.738;20.980;2022-10-31T12:13:45;101413.28;;;16.28;100.00
39887;BME280;25559;44.738;20.980;2022-10-31T12:16:25;101410.06;;;16.16;100.00
39887;BME280;25559;44.738;20.980;2022-10-31T12:19:05;101404.72;;;16.21;100.00
39887;BME280;25559;44.738;20.980;2022-10-31T12:24:39;101403.31;;;16.42;100.00
39887;BME280;25559;44.738;20.980;2022-10-31T12:30:27;101407.50;;;16.49;100.00
39887;BME280;25559;44.738;20.980;2022-10-31T12:43:57;101404.84;;;16.51;100.00
39887;BME280;25559;44.738;20.980;2022-10-31T12:49:14;101416.81;;;16.60;100.00
39887;BME280;25559;44.738;20.980;2022-10-31T12:51:51;101410.88;;;16.53;100.00
39887;BME280;25559;44.738;20.980;2022-10-31T13:02:29;101390.88;;;16.52;100.00
39887;BME280;25559;44.738;20.980;2022-10-31T13:05:01;101394.03;;;16.63;100.00
39887;BME280;25559;44.738;20.980;2022-10-31T13:07:34;101393.88;;;16.69;100.00
39887;BME280;25559;44.738;20.980;2022-10-31T13:10:27;101396.34;;;16.74;100.00
39887;BME280;25559;44.738;20.980;2022-10-31T13:13:00;101384.97;;;16.77;100.00
39887;BME280;25559;44.738;20.980;2022-10-31T13:15:31;101385.84;;;16.76;100.00
39887;BME280;25559;44.738;20.980;2022-10-31T13:18:04;101384.97;;;16.77;100.00
39887;BME280;25559;44.738;20.980;2022-10-31T13:20:35;101383.09;;;16.80;100.00
39887;BME280;25559;44.738;20.980;2022-10-31T13:23:16;101386.47;;;16.85;100.00
39887;BME280;25559;44.738;20.980;2022-10-31T13:25:55;101380.16;;;16.93;100.00
39887;BME280;25559;44.738;20.980;2022-10-31T13:28:44;101375.59;;;17.01;100.00
39887;BME280;25559;44.738;20.980;2022-10-31T13:31:10;101381.56;;;17.04;100.00
39887;BME280;25559;44.738;20.980;2022-10-31T13:33:48;101385.91;;;17.05;100.00
39887;BME280;25559;44.738;20.980;2022-10-31T13:44:27;101366.69;;;17.07;100.00
39887;BME280;25559;44.738;20.980;2022-10-31T13:46:57;101370.88;;;17.12;100.00
39887;BME280;25559;44.738;20.980;2022-10-31T13:54:41;101367.00;;;17.26;100.00
39887;BME280;25559;44.738;20.980;2022-10-31T13:57:31;101372.97;;;17.29;100.00
39887;BME280;25559;44.738;20.980;2022-10-31T14:02:37;101366.59;;;17.38;100.00
39887;BME280;25559;44.738;20.980;2022-10-31T14:05:31;101366.59;;;17.38;100.00
39887;BME280;25559;44.738;20.980;2022-10-31T14:08:01;101360.47;;;17.39;100.00
39887;BME280;25559;44.738;20.980;2022-10-31T14:10:29;101367.28;;;17.45;100.00
39887;BME280;25559;44.738;20.980;2022-10-31T14:15:29;101367.25;;;17.46;100.00
39887;BME280;25559;44.738;20.980;2022-10-31T14:17:56;101369.81;;;17.48;100.00
39887;BME280;25559;44.738;20.980;2022-10-31T14:20:39;101369.00;;;17.46;100.00
39887;BME280;25559;44.738;20.980;2022-10-31T14:28:43;101366.56;;;17.39;100.00
39887;BME280;25559;44.738;20.980;2022-10-31T14:34:27;101363.09;;;17.39;100.00
39887;BME280;25559;44.738;20.980;2022-10-31T14:37:16;101357.91;;;17.37;100.00
39887;BME280;25559;44.738;20.980;2022-10-31T14:43:38;101364.22;;;17.30;100.00
39887;BME280;25559;44.738;20.980;2022-10-31T14:50:59;101354.66;;;17.29;100.00
39887;BME280;25559;44.738;20.980;2022-10-31T14:55:55;101354.78;;;17.25;100.00
39887;BME280;25559;44.738;20.980;2022-10-31T14:58:32;101352.31;;;17.20;100.00
39887;BME280;25559;44.738;20.980;2022-10-31T15:00:59;101349.72;;;17.18;100.00
39887;BME280;25559;44.738;20.980;2022-10-31T15:03:32;101349.81;;;17.15;100.00
39887;BME280;25559;44.738;20.980;2022-10-31T15:06:10;101350.91;;;17.10;100.00
39887;BME280;25559;44.738;20.980;2022-10-31T15:08:50;101344.06;;;17.04;100.00